Burns Pinion Ridge Reserve, California Weather observations

Data are for 10 minute period ending at time listed.
 Day   Time   Solar   Ave.   Ave.  Ave.  Vector  Max.   Baro.   Total    
  of    of     Rad.   Air    Rel.  Wind   Wind   Wind  Press.  Precip.   
Year   Day            Temp.  Hum.  Speed  Dir.   Gust                    
2017   (PST)  Kw/m2    F      %     mph   deg.    mph    mb.     in.     
-------------------------------------------------------------------------
 112    6:10   0.16   53.4    27    0.4   316     2.2   876.0    0.00 
 112    6:20   0.19   61.0    20    1.3   334     3.8   876.1    0.00 
 112    6:30   0.23   65.2    18    1.4     3     2.9   876.2    0.00 
 112    6:40   0.27   67.4    15    3.6    43     6.1   876.2    0.00 
 112    6:50   0.32   68.5    14    4.2    53     7.7   876.1    0.00 
 112    7:00   0.36   69.1    13    4.4    52     8.3   876.1    0.00 
 112    7:10   0.36   69.5    13    3.7    57     6.4   876.1    0.00 
 112    7:20   0.41   69.9    13    4.2    51     8.0   876.1    0.00 
 112    7:30   0.46   70.2    13    3.7    80     7.0   876.2    0.00 
 112    7:40   0.50   70.0    13    3.7    86     6.6   876.3    0.00 
 112    7:50   0.53   70.2    13    4.0    78     7.7   876.3    0.00 
 112    8:00   0.57   70.1    13    3.8    85     6.6   876.4    0.00 
 112    8:10   0.61   71.4    13    3.4    61     7.3   876.4    0.00 
 112    8:20   0.64   71.7    12    3.6    68     6.1   876.6    0.00 
 112    8:30   0.67   72.0    12    3.6    63     6.6   876.7    0.00 
 112    8:40   0.71   71.9    12    3.8    58     7.5   876.7    0.00 
 112    8:50   0.70   72.5    12    4.0    71     8.3   876.8    0.00 
 112    9:00   0.78   73.4    12    3.3    58     6.8   876.8    0.00 
 112    9:10   0.76   73.7    12    4.0    52     6.9   876.8    0.00 
 112    9:20   0.87   73.3    12    3.8    89     8.6   876.9    0.00 
 112    9:30   0.79   73.6    12    3.5    88     7.5   876.9    0.00 
 112    9:40   0.81   73.2    12    5.0   111    10.3   877.0    0.00 
 112    9:50   0.82   73.8    12    4.2    88     8.5   877.0    0.00 
 112   10:00   0.95   74.5    12    4.6    96     7.7   876.9    0.00 
 112   10:10   0.99   75.2    11    3.7    68     7.4   876.9    0.00 
 112   10:20   0.86   76.1    11    3.3   109     7.0   876.8    0.00 
 112   10:30   0.98   76.7    11    3.8    64     7.7   876.8    0.00 
 112   10:40   0.84   76.7    11    3.7   104     8.1   876.6    0.00 
 112   10:50   0.92   77.4    11    3.2   157     9.1   876.6    0.00 
 112   11:00   0.99   78.0    11    3.8   201     8.0   876.5    0.00 
 112   11:10   1.02   78.1    11    5.9   145    11.9   876.3    0.00 
 112   11:20   1.01   78.7    11    4.8   170     9.3   876.2    0.00 
 112   11:30   1.00   78.1    11    5.2   177    11.1   876.1    0.00 
 112   11:40   1.00   78.5    11    4.7   138     9.1   875.9    0.00 
 112   11:50   1.00   78.4    11    4.9   136    10.9   875.8    0.00 
 112   12:00   0.98   79.0    11    6.6   135    10.7   875.7    0.00 
 112   12:10   1.00   79.2    11    5.7   141    10.8   875.6    0.00 
 112   12:20   0.99   79.5    11    7.2   144    11.7   875.5    0.00 
 112   12:30   1.00   79.6    11    4.6    96    12.3   875.4    0.00 
 112   12:40   0.99   79.9    11    4.8    89    10.1   875.3    0.00 
 112   12:50   0.98   80.0    11    5.9   129    15.0   875.2    0.00 
 112   13:00   0.97   80.3    10    6.4   126    12.1   875.2    0.00 
 112   13:10   0.95   81.2    10    7.4   134    17.5   875.0    0.00 
 112   13:20   0.94   80.6    10    6.2    98    14.8   874.9    0.00 
 112   13:30   0.92   81.2    10    7.9   132    13.7   874.9    0.00 
 112   13:40   0.90   81.4    10    6.8   127    14.9   874.8    0.00 
 112   13:50   0.88   81.0    10    5.7   136    11.4   874.6    0.00 
 112   14:00   0.86   82.4    10    6.1   133    13.2   874.5    0.00 
 112   14:10   0.83   81.8    10    5.4   137    12.8   874.4    0.00 
 112   14:20   0.81   81.9    10    7.2   163    14.3   874.3    0.00 
 112   14:30   0.78   82.7    10    6.1   162    11.4   874.2    0.00 
 112   14:40   0.75   83.5    10    5.3   194    13.2   874.1    0.00 
 112   14:50   0.72   82.4    10    5.6   206    14.5   874.0    0.00 
 112   15:00   0.69   82.2    10    5.5   224    12.1   873.9    0.00 
 112   15:10   0.66   83.4    10    3.6   218     7.8   873.8    0.00 
 112   15:20   0.63   82.2    10    6.2   189    14.1   873.8    0.00 
 112   15:30   0.59   82.0    10    4.1   222     9.1   873.7    0.00 
 112   15:40   0.56   82.0    10    6.2   180    11.7   873.7    0.00 
 112   15:50   0.53   81.8    11    6.5   167    15.1   873.7    0.00 
 112   16:00   0.48   81.1    11    8.2   190    18.3   873.7    0.00 
 112   16:10   0.45   80.8    11    5.6   232    10.7   873.7    0.00 
 112   16:20   0.41   80.9    11    6.0   206    12.6   873.7    0.00 
 112   16:30   0.38   81.0    11    5.0   190    12.0   873.6    0.00 
 112   16:40   0.33   81.4    11    5.1   185    11.6   873.6    0.00 
 112   16:50   0.30   80.2    11    6.2   198    13.7   873.6    0.00 
 112   17:00   0.26   79.0    11    7.9   216    16.7   873.5    0.00 
 112   17:10   0.22   78.8    12    8.1   208    15.1   873.4    0.00 
 112   17:20   0.18   78.2    12    7.9   216    16.4   873.3    0.00 
 112   17:30   0.14   77.2    12   11.6   211    19.6   873.3    0.00 
 112   17:40   0.11   76.5    13   12.0   216    20.0   873.2    0.00 
 112   17:50   0.08   75.5    14   12.6   218    22.8   873.2    0.00 
 112   18:00   0.05   74.9    15   11.6   218    25.5   873.2    0.00 
 112   18:10   0.02   73.8    18    9.8   215    19.6   873.2    0.00 
 112   18:20   0.00   72.8    21    9.6   212    16.8   873.3    0.00 
 112   18:30   0.00   72.3    22    8.8   219    18.3   873.3    0.00 
 112   18:40   0.00   71.9    22    8.9   214    19.3   873.3    0.00 
 112   18:50   0.00   71.8    22   10.1   214    16.4   873.3    0.00 
 112   19:00   0.00   71.5    22    9.0   215    17.2   873.3    0.00 
 112   19:10   0.00   71.1    22    8.7   216    15.8   873.4    0.00 
 112   19:20   0.00   70.7    23    6.8   218    12.9   873.5    0.00 
 112   19:30   0.00   70.3    23    7.2   214    13.0   873.6    0.00 
 112   19:40   0.00   70.0    24    5.6   207    12.3   873.6    0.00 
 112   19:50   0.00   69.6    24    6.3   211     9.6   873.6    0.00 
 112   20:00   0.00   69.3    24    7.2   209    11.3   873.7    0.00 
 112   20:10   0.00   69.3    24    6.5   214    11.5   873.8    0.00 
 112   20:20   0.00   68.7    25    5.4   207     8.6   873.9    0.00 
 112   20:30   0.00   68.5    25    5.6   209     8.6   873.8    0.00 
 112   20:40   0.00   68.3    25    6.4   201     8.8   873.8    0.00 
 112   20:50   0.00   68.1    25    6.2   206    10.6   873.8    0.00 
 112   21:00   0.00   67.7    25    6.1   203    10.2   873.8    0.00 
 112   21:10   0.00   67.6    25    6.6   203    11.1   873.8    0.00 
 112   21:20   0.00   67.3    25    5.7   206     9.3   873.7    0.00 
 112   21:30   0.00   67.2    25    6.4   212     9.9   873.6    0.00 
 112   21:40   0.00   67.3    24    6.3   202     9.8   873.6    0.00 
 112   21:50   0.00   66.5    25    5.5   201     8.4   873.5    0.00 
 112   22:00   0.00   66.5    24    4.6   200     8.2   873.4    0.00 
 112   22:10   0.00   65.5    25    4.5   194     6.9   873.2    0.00 
 112   22:20   0.00   65.2    25    4.9   194     7.8   873.1    0.00 
 112   22:30   0.00   66.2    23    5.6   206     8.1   873.0    0.00 
 112   22:40   0.00   65.7    24    4.4   182     6.8   872.9    0.00 
 112   22:50   0.00   65.1    24    3.5   212     6.1   872.9    0.00 
 112   23:00   0.00   63.8    25    3.0   217     6.1   872.9    0.00 
 112   23:10   0.00   63.9    25    4.3   215     6.8   872.7    0.00 
 112   23:20   0.00   64.7    24    3.6   188     6.8   872.6    0.00 
 112   23:30   0.00   64.2    24    2.6   190     4.7   872.5    0.00 
 112   23:40   0.00   63.9    24    2.5   219     5.6   872.3    0.00 
 112   23:50   0.00   63.6    25    3.5   242     4.5   872.3    0.00 
 113    0:00   0.00   63.0    25    5.4   215     8.1   872.3    0.00 
 113    0:10   0.00   65.8    22    5.4   223     8.8   872.2    0.00 
 113    0:20   0.00   65.8    22    5.0   224     8.0   872.0    0.00 
 113    0:30   0.00   65.3    23    3.9   237     6.0   871.9    0.00 
 113    0:40   0.00   64.1    24    4.1   249     6.6   871.9    0.00 
 113    0:50   0.00   63.7    24    3.7   234     8.0   871.8    0.00 
 113    1:00   0.00   65.0    23    7.7   224    13.2   871.6    0.00 
 113    1:10   0.00   65.1    23    4.3   217     9.1   871.5    0.00 
 113    1:20   0.00   63.9    24    3.4   258     7.3   871.6    0.00 
 113    1:30   0.00   63.8    24    3.7   219     7.2   871.6    0.00 
 113    1:40   0.00   64.3    23    4.8   227    10.7   871.4    0.00 
 113    1:50   0.00   63.5    24    4.1   220     7.0   871.4    0.00 
 113    2:00   0.00   63.7    23    6.9   213    11.5   871.2    0.00 
 113    2:10   0.00   64.2    22    6.7   214    10.3   871.0    0.00 
 113    2:20   0.00   64.2    22    8.2   214    12.0   870.9    0.00 
 113    2:30   0.00   64.3    22    8.1   212    12.3   870.8    0.00 
 113    2:40   0.00   64.3    21    8.4   214    12.2   870.7    0.00 
 113    2:50   0.00   64.3    20    8.1   217    14.6   870.7    0.00 
 113    3:00   0.00   64.1    20    5.9   224     9.9   870.7    0.00 
 113    3:10   0.00   64.1    19    7.0   219    12.1   870.7    0.00 
 113    3:20   0.00   64.6    18    8.1   213    14.0   870.7    0.00 
 113    3:30   0.00   63.7    20    4.5   224     8.3   870.6    0.00 
 113    3:40   0.00   63.6    19    6.4   227    11.5   870.5    0.00 
 113    3:50   0.00   63.6    18    4.9   197     9.0   870.5    0.00 
 113    4:00   0.00   62.4    20    5.0   174     9.3   870.4    0.00 
 113    4:10   0.00   61.8    20    5.0   199    11.4   870.3    0.00 
 113    4:20   0.00   63.6    18    8.9   217    17.6   870.2    0.00 
 113    4:30   0.00   64.3    16    9.8   219    17.0   870.1    0.00 
 113    4:40   0.00   64.1    16    6.5   235    14.2   870.2    0.00 
 113    4:50   0.00   63.6    17    5.7   235    15.0   870.4    0.00 
 113    5:00   0.00   62.7    18    4.2   256     8.1   870.7    0.00 
 113    5:10   0.01   61.5    19    1.5   238     6.4   870.8    0.00 
 113    5:20   0.01   59.9    20    3.0   252     6.0   870.8    0.00 
 113    5:30   0.01   60.3    20    2.5   272     3.9   870.9    0.00 
 113    5:40   0.03   59.4    20    2.5   242     6.3   870.9    0.00 
 113    5:50   0.04   61.6    17    3.1   257     9.9   870.8    0.00 
 113    6:00   0.04   63.5    15    4.2   271     8.6   870.9    0.00 

Return to Burns Pinion Ridge Reserve graphs page.


Western Regional Climate Center,wrcc@dri.edu